Terminal Aerodrome Forecast
Issued by NWS

Home | Current Version | Previous Version | Text Only | Print | Product List | Glossary Off
Versions: 1 2 3 4 5 6 7 8 9 10 11 12 13 14 15 16 17 18 19 20

112
FTUS43 KABR 230536
TAFPIR
TAF
KPIR 230536Z 2306/2406 29009KT P6SM -SHRA OVC080
     FM230800 29006KT P6SM BKN150
     FM232000 26006KT P6SM FEW250=

USA.gov is the U.S. government's official web portal to all federal, state and local government web resources and services.